Pagina principale
METAR-TAF:

METAR-TAF

Aeroporti :

Aeroporto di Rimini-Miramare

Rimini, Italia

latitudine: 44-02N, longitudine: 012-37E, altezza: 12 m

Osservazione

Il bollettino è stato emesso 12 minuti fa, alle 12:50 UTC
Vento 8 kt da ovest/nord-ovest
Temperature 9°C
Umidità 57%
Pressione 1024 hPa
Visibilità: 6000 m
Nubi sparse ad un'altezza di 7000 ft

METAR: LIPR 061250Z 29008KT 6000 SCT070 09/01 Q1024

Ora: 14:02 (13:02 UTC)

Previsione

Il bollettino è stato emesso 2 ore e 2 minuti fa, alle 11:00 UTC
Previsione valida dal 06 alle 12 UTC al 06 alle 21 UTC
Vento 4 kt da direzioni variabili
Visibilità: 7000 m
Nubi sparse ad un'altezza di 6000 ft
Evoluzione graduale
dal 06 alle 17 UTC al 06 alle 19 UTC
Visibilità: 3000 m
foschia

TAF: LIPR 061100Z 0612/0621 VRB04KT 7000 SCT060 BECMG 0617/0619 3000 BR

Osservazioni e previsioni meteorologiche di più di 4000 aeroporti (messaggi METAR e TAF).

Le stazioni disponibili sono rappresentate dai dischi gialli e rossi sulla carta.

Puntare il mouse per vedere il nome della stazione.

Clicca sopra per visualizzare le osservazioni e previsioni meteorologiche.

Per cambiare la mappa : fare clic sui pulsanti verdi con una croce nera per ingrandire, il pulsante verde con un trattino per diminuire, o sulla freccia verde per le mappe adiacenti.


METAR-TAF: